Time;durP1;ratioP1;P1;durP2;ratioP2;P2;SDS_P1;SDS_P2;PMS_P1;PMS_P2;Temp;Humidity;BMP_temperature;BMP_pressure;BME280_temperature;BME280_humidity;BME280_pressure;Samples;Min_cycle;Max_cycle;Signal;HPM_P1;HPM_P2
2023/04/08 00:01:30;;;;;;;11.27;7.03;;;2.90;1.00;;;;;;5055266;28;20181;-23
2023/04/08 00:03:56;;;;;;;10.80;6.93;;;2.90;1.00;;;;;;5055505;28;20055;-23
2023/04/08 00:06:21;;;;;;;12.73;8.40;;;2.90;1.00;;;;;;5055455;28;20045;-23
2023/04/08 00:08:47;;;;;;;11.57;7.97;;;2.80;1.00;;;;;;5054661;28;20045;-23
2023/04/08 00:11:13;;;;;;;12.63;8.38;;;2.80;1.00;;;;;;5055073;28;20060;-23
2023/04/08 00:13:38;;;;;;;11.87;8.20;;;2.70;1.00;;;;;;5055827;28;20044;-23
2023/04/08 00:16:04;;;;;;;14.77;8.77;;;3.50;1.00;;;;;;5054907;28;20498;-23
2023/04/08 00:18:30;;;;;;;14.87;9.43;;;2.70;2.70;;;;;;5055458;28;20103;-23
2023/04/08 00:20:56;;;;;;;13.73;8.67;;;2.70;1.00;;;;;;5053477;28;20088;-23
2023/04/08 00:23:22;;;;;;;13.43;9.47;;;2.60;1.00;;;;;;5054897;28;20051;-23
2023/04/08 00:25:47;;;;;;;14.33;9.80;;;2.60;96.90;;;;;;5054294;28;20051;-23
2023/04/08 00:28:13;;;;;;;13.90;9.10;;;2.50;99.90;;;;;;5054994;28;20094;-23
2023/04/08 00:30:39;;;;;;;15.80;10.50;;;2.50;99.90;;;;;;5054707;28;20049;-23
2023/04/08 00:33:05;;;;;;;17.67;10.77;;;2.50;99.90;;;;;;5053443;28;20399;-23
2023/04/08 00:35:30;;;;;;;16.77;11.23;;;2.50;99.90;;;;;;5054822;28;20044;-22
2023/04/08 00:37:56;;;;;;;19.47;11.20;;;2.40;99.90;;;;;;5054527;28;20044;-23
2023/04/08 00:40:22;;;;;;;17.10;10.00;;;2.40;99.90;;;;;;5054808;28;20052;-23
2023/04/08 00:42:48;;;;;;;18.45;11.02;;;2.40;99.90;;;;;;5054141;28;20443;-23
2023/04/08 00:45:13;;;;;;;18.80;13.10;;;2.50;99.90;;;;;;5054428;28;20055;-23
2023/04/08 00:47:39;;;;;;;19.63;12.83;;;2.50;99.90;;;;;;5054447;28;20036;-23
2023/04/08 00:50:08;;;;;;;19.60;12.53;;;2.50;99.90;;;;;;5055153;28;20128;-23
2023/04/08 00:52:34;;;;;;;16.83;12.40;;;2.50;99.90;;;;;;5054576;28;20045;-23
2023/04/08 00:55:00;;;;;;;22.63;13.43;;;2.50;1.00;;;;;;5053312;28;20114;-22
2023/04/08 00:57:25;;;;;;;20.03;13.53;;;2.40;1.00;;;;;;5054384;28;20053;-23
2023/04/08 00:59:51;;;;;;;25.27;13.40;;;2.40;1.00;;;;;;5054722;28;20466;-22
2023/04/08 01:02:26;;;;;;;20.03;13.67;;;2.90;1.00;;;;;;5054135;28;20056;-22
2023/04/08 01:05:05;;;;;;;24.07;13.30;;;2.40;1.00;;;;;;5054689;28;20045;-22
2023/04/08 01:07:37;;;;;;;23.30;14.80;;;2.40;1.00;;;;;;5054644;28;20041;-23
2023/04/08 01:10:15;;;;;;;25.33;14.83;;;2.30;1.00;;;;;;5054876;28;20049;-23
2023/04/08 01:12:52;;;;;;;21.47;15.10;;;2.30;1.00;;;;;;5054589;28;20088;-23
2023/04/08 01:15:19;;;;;;;22.50;14.80;;;2.30;1.00;;;;;;5054256;28;20052;-22
2023/04/08 01:17:47;;;;;;;24.97;15.03;;;2.30;1.00;;;;;;5052907;28;20575;-22
2023/04/08 01:20:15;;;;;;;25.23;15.70;;;2.20;1.00;;;;;;5053493;28;20088;-22
2023/04/08 01:22:56;;;;;;;22.63;15.80;;;2.30;1.00;;;;;;5054403;28;20442;-23
2023/04/08 01:25:26;;;;;;;25.57;16.27;;;2.30;1.00;;;;;;5053787;28;20049;-23
2023/04/08 01:27:56;;;;;;;24.03;16.37;;;2.20;60.50;;;;;;5053699;28;20126;-22
2023/04/08 01:30:24;;;;;;;26.00;16.57;;;2.20;1.00;;;;;;5054536;28;20114;-23
2023/04/08 01:32:52;;;;;;;27.00;17.27;;;2.20;72.50;;;;;;5053712;28;20110;-23
2023/04/08 01:35:18;;;;;;;27.60;17.20;;;2.20;1.00;;;;;;5053676;28;20093;-23
2023/04/08 01:37:45;;;;;;;25.53;16.67;;;2.50;1.00;;;;;;5051557;28;20081;-23
2023/04/08 01:40:12;;;;;;;25.83;17.50;;;2.20;1.00;;;;;;5053591;28;20092;-22
2023/04/08 01:42:38;;;;;;;25.73;18.00;;;2.10;1.00;;;;;;5053567;28;20080;-23
2023/04/08 01:45:06;;;;;;;26.63;17.97;;;2.10;68.00;;;;;;5053492;28;20550;-22
2023/04/08 01:47:33;;;;;;;26.07;17.33;;;2.00;96.60;;;;;;5053499;28;20049;-22
2023/04/08 01:50:00;;;;;;;28.13;18.20;;;2.00;47.80;;;;;;5052479;28;20053;-23
2023/04/08 01:52:29;;;;;;;33.17;19.83;;;1.90;85.30;;;;;;5053486;28;20150;-23
2023/04/08 01:54:55;;;;;;;29.23;19.30;;;1.90;48.00;;;;;;5053425;28;20490;-23
2023/04/08 01:57:27;;;;;;;31.27;21.33;;;1.90;93.20;;;;;;5053599;28;20570;-22
2023/04/08 01:59:58;;;;;;;34.20;20.63;;;2.00;95.70;;;;;;5053386;28;20091;-22
2023/04/08 02:02:26;;;;;;;42.60;20.60;;;1.90;99.90;;;;;;5054209;28;20071;-23
2023/04/08 02:04:53;;;;;;;30.37;19.67;;;1.90;91.90;;;;;;5053305;28;20088;-23
2023/04/08 02:07:19;;;;;;;33.27;20.97;;;1.80;63.60;;;;;;5053587;28;20037;-22
2023/04/08 02:09:45;;;;;;;37.53;22.50;;;1.70;41.10;;;;;;5053254;28;20553;-22
2023/04/08 02:12:11;;;;;;;38.90;20.33;;;1.80;61.60;;;;;;5053259;28;20045;-22
2023/04/08 02:14:37;;;;;;;36.77;21.87;;;1.80;89.00;;;;;;5053278;28;20049;-22
2023/04/08 02:17:17;;;;;;;38.27;21.97;;;1.70;99.90;;;;;;5053141;28;20391;-22
2023/04/08 02:20:07;;;;;;;39.30;22.40;;;1.70;99.90;;;;;;5053352;28;20048;-22
2023/04/08 02:22:43;;;;;;;38.40;24.33;;;1.70;99.90;;;;;;5042627;28;20115;-22
2023/04/08 02:25:14;;;;;;;44.57;25.93;;;1.70;99.90;;;;;;5051998;28;20049;-23
2023/04/08 02:27:41;;;;;;;42.43;24.57;;;1.70;99.90;;;;;;5051871;28;20088;-22
2023/04/08 02:30:09;;;;;;;40.40;25.27;;;1.80;99.90;;;;;;5053064;28;20106;-22
2023/04/08 02:32:36;;;;;;;44.67;25.93;;;1.80;99.90;;;;;;5053110;28;20049;-22
2023/04/08 02:35:04;;;;;;;47.63;27.07;;;1.70;99.90;;;;;;5053620;28;20395;-22
2023/04/08 02:37:33;;;;;;;44.27;26.70;;;1.80;99.90;;;;;;5051884;28;20567;-22
2023/04/08 02:39:59;;;;;;;52.23;27.03;;;1.70;99.90;;;;;;5053059;28;20132;-22
2023/04/08 02:42:25;;;;;;;46.97;26.60;;;1.70;99.90;;;;;;5052983;28;20059;-22
2023/04/08 02:44:51;;;;;;;51.53;28.47;;;1.70;99.90;;;;;;5052954;28;20054;-22
2023/04/08 02:47:17;;;;;;;47.10;27.43;;;1.70;99.90;;;;;;5052639;28;20404;-22
2023/04/08 02:49:42;;;;;;;51.17;28.43;;;1.70;99.90;;;;;;5055533;28;20045;-22
2023/04/08 02:52:08;;;;;;;51.37;27.67;;;1.60;99.90;;;;;;5056850;28;20128;-22
2023/04/08 02:54:34;;;;;;;51.70;29.57;;;1.60;99.90;;;;;;5057403;28;20120;-22
2023/04/08 02:57:01;;;;;;;49.23;29.40;;;1.60;99.90;;;;;;5056441;28;20364;-22
2023/04/08 02:59:26;;;;;;;54.27;30.03;;;1.60;99.90;;;;;;5056429;28;20052;-22
2023/04/08 03:01:52;;;;;;;61.17;31.73;;;1.70;99.90;;;;;;5056428;28;20040;-22
2023/04/08 03:04:18;;;;;;;52.43;30.20;;;1.70;99.90;;;;;;5056390;28;20047;-22
2023/04/08 03:06:44;;;;;;;57.03;31.47;;;1.70;99.90;;;;;;5056896;28;20076;-22
2023/04/08 03:09:10;;;;;;;60.07;32.07;;;1.60;99.90;;;;;;5056232;28;20045;-23
2023/04/08 03:11:35;;;;;;;53.17;30.70;;;1.70;99.90;;;;;;5056217;28;20055;-22
2023/04/08 03:14:01;;;;;;;60.70;32.33;;;1.60;99.90;;;;;;5055827;28;20053;-22
2023/04/08 03:16:27;;;;;;;68.03;33.20;;;1.70;99.90;;;;;;5055410;28;20052;-22
2023/04/08 03:18:53;;;;;;;64.00;33.13;;;1.70;99.90;;;;;;5056768;28;20037;-22
2023/04/08 03:21:19;;;;;;;64.40;33.63;;;1.70;99.90;;;;;;5054703;28;20143;-22
2023/04/08 03:23:44;;;;;;;61.33;33.47;;;1.70;99.90;;;;;;5055990;28;20049;-22
2023/04/08 03:26:10;;;;;;;68.40;33.47;;;1.80;99.90;;;;;;5055950;28;20040;-22
2023/04/08 03:28:36;;;;;;;67.33;34.27;;;1.80;99.90;;;;;;5055884;28;20128;-22
2023/04/08 03:31:03;;;;;;;63.57;34.17;;;1.80;99.90;;;;;;5055913;28;20048;-22
2023/04/08 03:33:29;;;;;;;63.43;33.83;;;1.80;99.90;;;;;;5054843;28;20045;-22
2023/04/08 03:35:55;;;;;;;63.57;33.67;;;1.80;99.90;;;;;;5056535;28;20060;-22
2023/04/08 03:38:21;;;;;;;66.87;34.30;;;1.80;99.90;;;;;;5055599;28;20457;-22
2023/04/08 03:40:47;;;;;;;61.60;32.27;;;1.80;99.90;;;;;;5055713;28;20127;-22
2023/04/08 03:43:13;;;;;;;66.97;34.33;;;1.80;99.90;;;;;;5055592;28;20049;-22
2023/04/08 03:45:39;;;;;;;70.50;34.93;;;2.10;99.90;;;;;;5055304;28;20406;-22
2023/04/08 03:48:05;;;;;;;58.07;33.47;;;1.80;99.90;;;;;;5055523;28;20132;-22
2023/04/08 03:50:31;;;;;;;64.13;34.17;;;1.80;99.90;;;;;;5056039;28;20052;-22
2023/04/08 03:52:57;;;;;;;66.07;33.80;;;1.70;99.90;;;;;;5054858;28;20430;-22
2023/04/08 03:55:22;;;;;;;69.00;35.30;;;1.80;99.90;;;;;;5055912;28;20107;-22
2023/04/08 03:57:48;;;;;;;65.57;35.07;;;1.80;99.90;;;;;;5056066;28;20045;-22
2023/04/08 04:00:14;;;;;;;70.27;35.30;;;1.70;99.90;;;;;;5054162;28;20491;-22
2023/04/08 04:02:40;;;;;;;74.60;36.10;;;1.70;99.90;;;;;;5055270;28;20041;-22
2023/04/08 04:05:07;;;;;;;74.57;36.20;;;1.80;99.90;;;;;;5054937;28;20406;-22
2023/04/08 04:07:33;;;;;;;74.77;37.43;;;1.70;99.90;;;;;;5038299;28;20133;-22
2023/04/08 04:09:59;;;;;;;78.83;37.23;;;1.70;99.90;;;;;;5055153;28;20048;-22
2023/04/08 04:12:25;;;;;;;73.67;37.17;;;1.70;99.90;;;;;;5053875;28;20134;-22
2023/04/08 04:14:51;;;;;;;74.00;37.07;;;1.70;99.90;;;;;;5055550;28;20045;-22
2023/04/08 04:17:17;;;;;;;74.97;35.43;;;1.70;99.90;;;;;;5054893;28;20041;-22
2023/04/08 04:19:43;;;;;;;81.67;38.97;;;1.70;99.90;;;;;;5055662;28;20063;-22
2023/04/08 04:22:09;;;;;;;73.00;36.10;;;2.00;99.90;;;;;;5055479;28;20543;-22
2023/04/08 04:24:35;;;;;;;83.97;38.93;;;1.70;99.90;;;;;;5054210;28;20157;-22
2023/04/08 04:27:00;;;;;;;79.87;39.00;;;1.70;99.90;;;;;;5053609;28;20051;-22
2023/04/08 04:29:26;;;;;;;80.30;38.43;;;1.70;99.90;;;;;;5054493;28;20068;-22
2023/04/08 04:31:52;;;;;;;74.73;38.90;;;1.60;99.90;;;;;;5054358;28;20041;-22
2023/04/08 04:34:18;;;;;;;83.40;39.13;;;1.60;99.90;;;;;;5055502;28;20492;-22
2023/04/08 04:36:43;;;;;;;83.87;38.50;;;1.70;99.90;;;;;;5055122;28;20041;-22
2023/04/08 04:39:09;;;;;;;77.70;37.93;;;1.60;99.90;;;;;;5054526;28;20041;-22
2023/04/08 04:41:39;;;;;;;92.27;40.73;;;1.60;99.90;;;;;;5053531;28;20049;-22
2023/04/08 04:44:05;;;;;;;84.57;39.33;;;1.70;99.90;;;;;;5054494;28;20060;-22
2023/04/08 04:46:31;;;;;;;88.13;39.80;;;1.70;99.90;;;;;;5054486;28;20047;-22
2023/04/08 04:48:57;;;;;;;87.30;39.83;;;1.70;99.90;;;;;;5054411;28;20052;-22
2023/04/08 04:51:23;;;;;;;81.67;39.47;;;1.80;99.90;;;;;;5054340;28;20067;-22
2023/04/08 04:53:48;;;;;;;93.40;41.60;;;1.90;99.90;;;;;;5054298;28;20040;-22
2023/04/08 04:56:14;;;;;;;87.10;40.07;;;1.80;99.90;;;;;;5054696;28;20049;-22
2023/04/08 04:58:41;;;;;;;90.43;42.30;;;1.90;99.90;;;;;;5054264;28;20069;-22
2023/04/08 05:01:06;;;;;;;90.03;40.33;;;1.90;99.90;;;;;;5054188;28;20136;-22
2023/04/08 05:03:32;;;;;;;78.97;35.03;;;1.70;99.90;;;;;;5054154;28;20072;-22
2023/04/08 05:05:58;;;;;;;69.90;35.10;;;1.40;99.90;;;;;;5054100;28;20548;-22
2023/04/08 05:08:24;;;;;;;78.63;36.03;;;1.20;99.90;;;;;;5053755;28;20498;-22
2023/04/08 05:10:50;;;;;;;72.40;33.53;;;1.10;99.90;;;;;;5054056;28;20061;-22
2023/04/08 05:13:17;;;;;;;69.23;32.73;;;0.90;99.90;;;;;;5054160;28;20056;-22
2023/04/08 05:15:44;;;;;;;88.03;34.03;;;0.80;99.90;;;;;;5053635;28;20442;-22
2023/04/08 05:18:10;;;;;;;78.53;32.83;;;0.60;99.90;;;;;;5054051;28;20057;-22
2023/04/08 05:20:36;;;;;;;80.10;32.13;;;0.50;99.90;;;;;;5053479;28;20064;-21
2023/04/08 05:23:02;;;;;;;74.50;31.30;;;0.40;99.90;;;;;;5053811;28;20053;-22
2023/04/08 05:25:29;;;;;;;66.77;30.67;;;0.30;99.90;;;;;;5054383;28;20052;-22
2023/04/08 05:27:55;;;;;;;77.70;32.63;;;0.20;99.90;;;;;;5053768;28;20047;-22
2023/04/08 05:30:21;;;;;;;69.03;32.37;;;0.10;99.90;;;;;;5052738;28;20056;-22
2023/04/08 05:32:47;;;;;;;66.80;32.10;;;0.10;99.90;;;;;;5052556;28;20056;-22
2023/04/08 05:35:13;;;;;;;85.17;35.47;;;0.10;99.90;;;;;;5053662;28;20045;-22
2023/04/08 05:37:39;;;;;;;79.50;36.33;;;0.30;99.90;;;;;;5053594;28;20095;-22
2023/04/08 05:40:05;;;;;;;69.07;34.97;;;0.40;99.90;;;;;;5053618;28;20053;-22
2023/04/08 05:42:31;;;;;;;100.40;41.33;;;0.60;99.90;;;;;;5053523;28;20487;-22
2023/04/08 05:44:57;;;;;;;101.53;43.37;;;0.90;99.90;;;;;;5054088;28;20106;-22
2023/04/08 05:47:23;;;;;;;105.60;44.70;;;1.20;99.90;;;;;;5053196;28;20399;-22
2023/04/08 05:49:49;;;;;;;115.00;47.50;;;1.50;99.90;;;;;;5053496;28;20045;-22
2023/04/08 05:52:15;;;;;;;111.53;44.77;;;1.80;99.90;;;;;;5053498;28;20041;-22
2023/04/08 05:54:44;;;;;;;99.70;43.73;;;1.90;99.90;;;;;;5053430;28;20056;-23
2023/04/08 05:57:10;;;;;;;104.27;45.73;;;2.00;99.90;;;;;;5053127;28;20052;-22
2023/04/08 05:59:36;;;;;;;104.67;44.20;;;2.20;99.90;;;;;;5053393;28;20053;-22
2023/04/08 06:02:02;;;;;;;101.73;43.93;;;2.30;99.90;;;;;;5053367;28;20394;-22
2023/04/08 06:04:29;;;;;;;102.47;44.50;;;2.50;99.90;;;;;;5053374;28;20053;-22
2023/04/08 06:06:58;;;;;;;104.90;48.03;;;2.60;99.90;;;;;;5053374;28;20045;-22
2023/04/08 06:09:24;;;;;;;104.57;45.00;;;2.70;99.90;;;;;;5052618;28;20045;-22
2023/04/08 06:11:51;;;;;;;100.90;44.73;;;2.80;99.90;;;;;;5054116;28;20127;-22
2023/04/08 06:14:17;;;;;;;98.80;45.20;;;2.90;99.90;;;;;;5053271;28;20045;-22
2023/04/08 06:16:42;;;;;;;94.43;43.63;;;3.10;99.90;;;;;;5053457;28;20119;-22
2023/04/08 06:19:08;;;;;;;86.47;41.80;;;3.20;99.90;;;;;;5052005;28;20426;-22
2023/04/08 06:21:34;;;;;;;91.40;43.53;;;3.40;99.90;;;;;;5053102;28;20072;-22
2023/04/08 06:24:00;;;;;;;86.03;41.90;;;3.50;99.90;;;;;;5054858;28;20052;-22
2023/04/08 06:26:26;;;;;;;89.85;42.80;;;3.90;99.90;;;;;;5057166;28;20053;-22
2023/04/08 06:28:52;;;;;;;81.07;41.00;;;3.60;99.90;;;;;;5056806;28;20049;-22
2023/04/08 06:31:18;;;;;;;79.93;39.27;;;4.00;99.90;;;;;;5057037;28;20045;-22
2023/04/08 06:33:44;;;;;;;66.93;37.53;;;3.90;99.90;;;;;;5057838;28;20045;-22
2023/04/08 06:36:12;;;;;;;70.78;37.15;;;3.90;99.90;;;;;;5056973;28;20479;-22
2023/04/08 06:38:38;;;;;;;68.57;36.83;;;4.60;99.90;;;;;;5056658;28;20507;-22
2023/04/08 06:41:07;;;;;;;60.38;35.22;;;4.70;99.90;;;;;;5055832;28;20052;-22
2023/04/08 06:43:34;;;;;;;56.22;32.38;;;4.70;99.90;;;;;;5056745;28;20052;-22
2023/04/08 06:46:00;;;;;;;59.83;34.35;;;5.00;99.90;;;;;;5057516;28;20057;-22
2023/04/08 06:48:29;;;;;;;53.97;32.35;;;5.20;99.90;;;;;;5056763;28;20052;-22
2023/04/08 06:50:59;;;;;;;49.30;31.40;;;5.50;99.90;;;;;;5057202;28;20119;-23
2023/04/08 06:53:28;;;;;;;51.40;31.17;;;5.90;99.90;;;;;;5056688;28;20056;-22
2023/04/08 06:55:54;;;;;;;42.85;28.45;;;6.10;99.90;;;;;;5056549;28;20048;-22
2023/04/08 06:58:19;;;;;;;44.25;27.48;;;6.10;99.90;;;;;;5055254;28;20131;-22
2023/04/08 07:00:46;;;;;;;39.38;26.88;;;6.20;99.90;;;;;;5056502;28;20187;-22
2023/04/08 07:03:12;;;;;;;40.63;26.13;;;6.30;99.90;;;;;;5055270;28;20041;-22
2023/04/08 07:05:38;;;;;;;36.58;25.98;;;6.30;99.90;;;;;;5056428;28;20048;-22
2023/04/08 07:08:05;;;;;;;37.60;26.00;;;6.50;99.90;;;;;;5056347;28;20111;-22
2023/04/08 07:10:31;;;;;;;32.47;24.73;;;6.60;99.90;;;;;;5056557;28;20596;-22
2023/04/08 07:12:57;;;;;;;30.25;22.80;;;6.60;99.90;;;;;;5056288;28;20057;-22
2023/04/08 07:15:22;;;;;;;28.70;19.83;;;6.80;99.90;;;;;;5056252;28;20056;-22
2023/04/08 07:17:48;;;;;;;28.00;20.38;;;6.80;99.90;;;;;;5055796;28;20369;-22
2023/04/08 07:20:14;;;;;;;26.05;19.58;;;6.70;99.90;;;;;;5056077;28;20095;-22
2023/04/08 07:22:40;;;;;;;25.88;20.02;;;6.70;99.90;;;;;;5055518;28;20484;-23
2023/04/08 07:25:06;;;;;;;24.70;17.17;;;6.70;99.90;;;;;;5055997;28;20052;-22
2023/04/08 07:27:35;;;;;;;23.52;18.05;;;6.70;99.90;;;;;;5055609;28;20124;-22
2023/04/08 07:30:01;;;;;;;22.25;18.13;;;6.70;99.90;;;;;;5055824;28;20053;-22
2023/04/08 07:32:27;;;;;;;24.10;16.92;;;7.00;99.90;;;;;;5055881;28;20057;-22
2023/04/08 07:34:53;;;;;;;22.45;16.67;;;6.70;99.90;;;;;;5055285;28;20060;-22
2023/04/08 07:37:19;;;;;;;23.98;17.38;;;6.70;99.90;;;;;;5055553;28;20048;-22
2023/04/08 07:39:45;;;;;;;21.70;16.02;;;7.00;99.90;;;;;;5056336;28;20098;-23
2023/04/08 07:42:10;;;;;;;24.25;17.73;;;7.10;99.90;;;;;;5055736;28;20045;-23
2023/04/08 07:44:37;;;;;;;27.42;18.77;;;7.00;99.90;;;;;;5055672;28;20049;-23
2023/04/08 07:47:03;;;;;;;24.65;19.00;;;7.00;99.90;;;;;;5055660;28;20556;-23
2023/04/08 07:49:29;;;;;;;23.83;18.65;;;6.90;99.90;;;;;;5055603;28;20049;-23
2023/04/08 07:51:54;;;;;;;23.77;18.30;;;6.90;86.60;;;;;;5055473;28;20048;-23
2023/04/08 07:54:20;;;;;;;22.73;17.65;;;7.00;1.00;;;;;;5054300;28;20080;-22
2023/04/08 07:56:46;;;;;;;21.80;16.05;;;7.00;1.00;;;;;;5056159;28;20072;-22
2023/04/08 07:59:12;;;;;;;19.15;14.95;;;7.10;60.30;;;;;;5055354;28;20094;-22
2023/04/08 08:01:38;;;;;;;22.27;15.73;;;7.20;54.10;;;;;;5054385;28;20048;-23
2023/04/08 08:04:04;;;;;;;21.00;15.52;;;7.30;49.40;;;;;;5055280;28;20045;-22
2023/04/08 08:06:33;;;;;;;22.42;15.18;;;7.30;1.00;;;;;;5054255;28;20045;-23
2023/04/08 08:08:59;;;;;;;15.25;13.18;;;7.30;1.00;;;;;;5055371;28;20041;-22
2023/04/08 08:11:26;;;;;;;21.60;16.17;;;7.30;1.00;;;;;;5054858;28;20437;-22
2023/04/08 08:13:52;;;;;;;21.30;15.20;;;7.30;1.00;;;;;;5055157;28;20045;-22
2023/04/08 08:16:18;;;;;;;23.20;17.08;;;7.40;1.00;;;;;;5054011;28;20501;-22
2023/04/08 08:18:44;;;;;;;23.52;17.17;;;7.30;1.00;;;;;;5053973;28;20044;-22
2023/04/08 08:21:10;;;;;;;24.23;16.05;;;7.40;1.00;;;;;;5053682;28;20053;-23
2023/04/08 08:23:36;;;;;;;19.40;14.73;;;7.40;1.00;;;;;;5054934;28;20063;-23
2023/04/08 08:26:05;;;;;;;24.35;16.25;;;7.50;1.00;;;;;;5054845;28;20090;-22
2023/04/08 08:28:31;;;;;;;17.55;13.95;;;7.20;1.00;;;;;;5053601;28;20399;-23
2023/04/08 08:30:57;;;;;;;20.50;14.52;;;7.00;1.00;;;;;;5055560;28;20053;-22
2023/04/08 08:33:24;;;;;;;18.25;13.82;;;7.00;1.00;;;;;;5053794;28;20060;-22
2023/04/08 08:35:50;;;;;;;23.13;16.55;;;7.10;1.00;;;;;;5054958;28;20081;-23
2023/04/08 08:38:16;;;;;;;20.75;14.90;;;7.20;1.00;;;;;;5054524;28;20045;-22
2023/04/08 08:40:46;;;;;;;22.52;17.10;;;7.30;1.00;;;;;;5054271;28;20495;-22
2023/04/08 08:43:13;;;;;;;22.02;15.20;;;7.40;1.00;;;;;;5055353;28;20037;-22
2023/04/08 08:45:40;;;;;;;19.55;15.48;;;7.50;1.00;;;;;;5058760;28;20399;-23
2023/04/08 08:48:10;;;;;;;23.88;18.25;;;7.30;99.90;;;;;;5072568;28;20101;-23
2023/04/08 08:50:35;;;;;;;23.58;16.30;;;7.30;1.00;;;;;;5068890;28;20063;-23
2023/04/08 08:53:02;;;;;;;23.60;17.20;;;7.20;1.00;;;;;;5054339;28;20045;-23
2023/04/08 08:55:33;;;;;;;24.17;16.77;;;7.30;1.00;;;;;;5054376;28;20080;-23
2023/04/08 08:58:00;;;;;;;24.20;16.33;;;7.20;1.00;;;;;;5054245;28;20052;-23
2023/04/08 09:00:43;;;;;;;23.08;16.30;;;7.20;1.00;;;;;;5058852;28;20511;-23
2023/04/08 09:03:26;;;;;;;24.52;18.48;;;7.30;1.00;;;;;;5064625;28;20116;-23
2023/04/08 09:05:57;;;;;;;26.38;19.35;;;7.30;1.00;;;;;;5053175;28;20049;-23
2023/04/08 09:08:30;;;;;;;26.60;19.42;;;7.40;1.00;;;;;;5054184;28;20041;-22
2023/04/08 09:11:16;;;;;;;27.63;20.33;;;7.30;1.00;;;;;;5054384;28;20064;-23
2023/04/08 09:13:44;;;;;;;27.30;19.60;;;7.30;1.00;;;;;;5054070;28;20099;-23
2023/04/08 09:16:12;;;;;;;24.42;18.48;;;7.50;1.00;;;;;;5052823;28;20088;-23
2023/04/08 09:18:39;;;;;;;25.77;17.77;;;7.30;1.00;;;;;;5058122;28;20090;-22
2023/04/08 09:21:07;;;;;;;22.90;17.67;;;7.40;1.00;;;;;;5073787;28;20066;-23
2023/04/08 09:26:12;;;;;;;22.70;16.73;;;7.50;1.00;;;;;;5073646;28;20063;-24
2023/04/08 09:28:38;;;;;;;19.42;14.27;;;7.70;1.00;;;;;;5074331;28;20052;-23
2023/04/08 09:31:25;;;;;;;18.15;13.15;;;7.80;1.00;;;;;;5073795;28;20056;-23
2023/04/08 09:34:01;;;;;;;17.67;12.05;;;8.10;1.00;;;;;;5074186;28;20044;-23
2023/04/08 09:36:27;;;;;;;21.98;14.32;;;8.00;99.90;;;;;;5073335;28;20506;-23
2023/04/08 09:38:54;;;;;;;17.13;12.85;;;7.90;99.90;;;;;;5073635;28;20045;-23
2023/04/08 09:41:22;;;;;;;20.73;15.15;;;7.90;99.90;;;;;;5073271;28;20052;-23
2023/04/08 09:43:53;;;;;;;21.05;15.48;;;8.00;99.90;;;;;;5073594;28;20050;-23
2023/04/08 09:46:25;;;;;;;21.80;15.15;;;8.00;99.90;;;;;;5074464;28;20048;-23
2023/04/08 09:49:17;;;;;;;18.55;14.02;;;8.00;99.90;;;;;;5074484;28;20052;-23
2023/04/08 09:52:05;;;;;;;18.67;13.80;;;8.00;99.90;;;;;;5041332;28;20054;-23
2023/04/08 09:54:56;;;;;;;19.13;14.88;;;8.00;99.90;;;;;;5073478;28;20482;-24
2023/04/08 09:57:40;;;;;;;21.05;15.65;;;8.00;99.90;;;;;;5073938;28;20044;-23
2023/04/08 10:00:07;;;;;;;17.83;14.32;;;8.10;99.90;;;;;;5077924;28;20059;-23
2023/04/08 10:02:39;;;;;;;18.08;14.20;;;8.20;99.90;;;;;;5059753;28;20048;-23
2023/04/08 10:05:06;;;;;;;19.27;14.70;;;8.50;99.90;;;;;;5078355;28;20056;-24
2023/04/08 10:07:34;;;;;;;18.67;14.90;;;8.20;99.90;;;;;;5077460;28;20419;-23
2023/04/08 10:10:01;;;;;;;22.90;16.00;;;8.60;99.90;;;;;;5077476;28;20048;-23
2023/04/08 10:12:27;;;;;;;20.58;16.15;;;8.40;99.90;;;;;;5077087;28;20446;-23
2023/04/08 10:15:21;;;;;;;20.35;16.65;;;8.50;99.90;;;;;;5077394;28;20055;-24
2023/04/08 10:17:46;;;;;;;21.20;15.80;;;8.50;99.90;;;;;;5077246;28;20040;-23
2023/04/08 10:20:37;;;;;;;21.05;16.42;;;8.60;99.90;;;;;;5060415;28;20052;-24
2023/04/08 10:23:04;;;;;;;25.27;17.58;;;8.70;99.90;;;;;;5077255;28;20056;-23
2023/04/08 10:25:37;;;;;;;22.85;17.30;;;9.00;99.90;;;;;;5076586;28;20064;-23
2023/04/08 10:28:16;;;;;;;21.73;16.63;;;9.00;99.90;;;;;;5060399;28;20083;-23
2023/04/08 10:30:46;;;;;;;19.95;16.90;;;9.00;95.50;;;;;;5077133;28;20063;-24
2023/04/08 10:33:16;;;;;;;19.20;14.50;;;8.90;75.00;;;;;;5077791;28;20119;-23
2023/04/08 10:35:47;;;;;;;24.75;17.45;;;9.10;99.90;;;;;;5077593;28;20056;-24
2023/04/08 10:38:14;;;;;;;21.77;16.23;;;9.10;99.90;;;;;;5077395;28;20044;-24
2023/04/08 10:40:41;;;;;;;21.92;17.33;;;9.10;99.90;;;;;;5076841;28;20052;-23
2023/04/08 10:43:12;;;;;;;24.50;17.88;;;9.20;99.90;;;;;;5059620;28;20379;-24
2023/04/08 10:45:39;;;;;;;22.73;17.95;;;9.30;99.90;;;;;;5076671;28;20399;-23
2023/04/08 10:48:23;;;;;;;25.40;17.35;;;9.30;99.90;;;;;;5076686;28;20044;-23
2023/04/08 10:50:54;;;;;;;25.75;16.90;;;9.50;99.90;;;;;;5076633;28;20040;-24
2023/04/08 10:53:26;;;;;;;25.42;16.92;;;9.40;99.90;;;;;;5076492;28;20044;-24
2023/04/08 10:55:51;;;;;;;24.77;16.67;;;9.40;99.90;;;;;;5076578;28;20135;-24
2023/04/08 10:58:17;;;;;;;23.40;16.50;;;9.40;99.90;;;;;;5076467;28;20124;-24
2023/04/08 11:00:43;;;;;;;23.00;15.63;;;9.30;99.90;;;;;;5059151;28;20044;-23
2023/04/08 11:03:10;;;;;;;17.30;12.40;;;9.00;99.90;;;;;;5076464;28;20047;-24
2023/04/08 11:05:37;;;;;;;26.48;16.33;;;9.00;99.90;;;;;;5058603;28;20044;-24
2023/04/08 11:08:04;;;;;;;23.65;14.75;;;8.90;99.90;;;;;;5076366;28;20044;-23
2023/04/08 11:10:30;;;;;;;21.75;14.30;;;9.10;99.90;;;;;;5058232;28;20048;-24
2023/04/08 11:12:57;;;;;;;24.30;15.73;;;9.20;99.90;;;;;;5076263;28;20057;-23
2023/04/08 11:15:29;;;;;;;22.70;16.15;;;9.20;99.90;;;;;;5076751;28;20132;-24
2023/04/08 11:17:55;;;;;;;28.80;17.70;;;9.10;99.90;;;;;;5076106;28;20044;-24
2023/04/08 11:20:21;;;;;;;34.90;20.38;;;9.30;99.90;;;;;;5076094;28;20398;-24
2023/04/08 11:22:49;;;;;;;36.25;21.38;;;9.00;99.90;;;;;;5076068;28;20123;-24
2023/04/08 11:25:15;;;;;;;34.75;19.75;;;8.80;99.90;;;;;;5075906;28;20052;-23
2023/04/08 11:27:41;;;;;;;35.03;19.95;;;9.00;99.90;;;;;;5076818;28;20051;-24
2023/04/08 11:30:08;;;;;;;28.83;19.27;;;9.00;99.90;;;;;;5057976;28;20398;-24
2023/04/08 11:32:35;;;;;;;26.98;19.15;;;9.00;99.90;;;;;;5041647;28;20052;-23
2023/04/08 11:35:03;;;;;;;28.08;18.13;;;9.20;99.90;;;;;;5075882;28;20479;-24
2023/04/08 11:37:39;;;;;;;30.00;18.75;;;9.30;99.90;;;;;;5076258;28;20123;-24
2023/04/08 11:40:10;;;;;;;29.67;19.85;;;9.20;99.90;;;;;;5057912;28;20059;-24
2023/04/08 11:42:36;;;;;;;25.48;19.17;;;9.40;99.90;;;;;;5058308;28;20095;-23
2023/04/08 11:45:13;;;;;;;27.60;18.13;;;9.60;99.90;;;;;;5075721;28;20041;-24
2023/04/08 11:47:39;;;;;;;30.77;20.40;;;9.70;99.90;;;;;;5075948;28;20041;-23
2023/04/08 11:50:06;;;;;;;28.40;18.88;;;9.70;99.90;;;;;;5057925;28;20064;-23
2023/04/08 11:52:44;;;;;;;34.40;19.95;;;9.80;99.90;;;;;;5076085;28;20048;-24
2023/04/08 11:55:11;;;;;;;30.13;18.65;;;9.80;99.90;;;;;;5058060;28;20068;-23
2023/04/08 11:57:38;;;;;;;26.35;18.92;;;9.90;99.90;;;;;;5075144;28;20443;-23
2023/04/08 12:00:06;;;;;;;31.90;19.40;;;10.00;99.90;;;;;;5057843;28;20386;-24
2023/04/08 12:02:31;;;;;;;28.30;19.65;;;10.00;99.90;;;;;;5058012;28;20052;-24
2023/04/08 12:04:57;;;;;;;31.83;20.45;;;10.10;99.90;;;;;;5075291;28;20051;-24
2023/04/08 12:07:23;;;;;;;30.25;18.75;;;9.90;95.40;;;;;;5075245;28;20045;-24
2023/04/08 12:09:49;;;;;;;25.65;18.13;;;9.90;99.90;;;;;;5008774;28;20386;-23
2023/04/08 12:12:14;;;;;;;27.77;19.15;;;10.20;99.90;;;;;;5024425;28;20053;-24
2023/04/08 12:14:40;;;;;;;28.02;19.33;;;10.10;99.90;;;;;;5075053;28;20055;-24
2023/04/08 12:17:06;;;;;;;28.33;19.08;;;10.10;90.10;;;;;;5057218;28;20079;-24
2023/04/08 12:19:31;;;;;;;29.95;20.45;;;10.20;99.90;;;;;;5075052;28;20052;-24
2023/04/08 12:21:57;;;;;;;33.95;20.30;;;10.30;99.90;;;;;;5074650;28;20047;-24
2023/04/08 12:24:23;;;;;;;26.67;19.40;;;10.10;16.70;;;;;;5074859;28;20109;-24
2023/04/08 12:26:49;;;;;;;30.83;20.23;;;9.90;42.70;;;;;;5075147;28;20049;-24
2023/04/08 12:29:14;;;;;;;29.63;19.42;;;10.00;99.70;;;;;;5075026;28;20497;-24
2023/04/08 12:31:40;;;;;;;25.60;17.75;;;10.00;99.90;;;;;;5074736;28;20437;-24
2023/04/08 12:34:06;;;;;;;27.30;19.35;;;10.10;99.90;;;;;;5074760;28;20059;-24
2023/04/08 12:36:32;;;;;;;31.20;18.90;;;10.10;99.90;;;;;;5074534;28;20048;-24
2023/04/08 12:38:57;;;;;;;25.98;18.77;;;10.10;94.90;;;;;;5074613;28;20048;-24
2023/04/08 12:41:23;;;;;;;30.80;19.05;;;10.00;25.40;;;;;;5074759;28;20044;-24
2023/04/08 12:43:49;;;;;;;28.35;19.23;;;10.10;99.90;;;;;;5074479;28;20475;-24